sensor_id;sensor_type;location;lat;lon;timestamp;pressure;altitude;pressure_sealevel;temperature;humidity
51313;BME280;37397;53.226;10.400;2024-02-21T00:01:17;101480.00;;;10.15;76.25
51313;BME280;37397;53.226;10.400;2024-02-21T00:03:44;101478.75;;;10.16;76.31
51313;BME280;37397;53.226;10.400;2024-02-21T00:06:11;101474.28;;;10.15;76.31
51313;BME280;37397;53.226;10.400;2024-02-21T00:08:37;101480.81;;;10.16;76.35
51313;BME280;37397;53.226;10.400;2024-02-21T00:11:04;101468.28;;;10.13;76.28
51313;BME280;37397;53.226;10.400;2024-02-21T00:13:32;101461.31;;;10.14;76.29
51313;BME280;37397;53.226;10.400;2024-02-21T00:16:00;101464.16;;;10.14;76.24
51313;BME280;37397;53.226;10.400;2024-02-21T00:18:27;101454.16;;;10.10;76.30
51313;BME280;37397;53.226;10.400;2024-02-21T00:20:56;101456.41;;;10.15;76.16
51313;BME280;37397;53.226;10.400;2024-02-21T00:23:22;101455.16;;;10.16;76.48
51313;BME280;37397;53.226;10.400;2024-02-21T00:25:50;101449.09;;;10.14;76.36
51313;BME280;37397;53.226;10.400;2024-02-21T00:28:17;101455.63;;;10.14;76.39
51313;BME280;37397;53.226;10.400;2024-02-21T00:30:44;101444.22;;;10.14;76.46
51313;BME280;37397;53.226;10.400;2024-02-21T00:33:10;101440.06;;;10.15;76.31
51313;BME280;37397;53.226;10.400;2024-02-21T00:35:37;101431.19;;;10.13;76.41
51313;BME280;37397;53.226;10.400;2024-02-21T00:38:04;101438.50;;;10.14;76.32
51313;BME280;37397;53.226;10.400;2024-02-21T00:40:31;101434.38;;;10.15;76.38
51313;BME280;37397;53.226;10.400;2024-02-21T00:42:57;101428.34;;;10.13;76.50
51313;BME280;37397;53.226;10.400;2024-02-21T00:45:24;101422.97;;;10.15;76.55
51313;BME280;37397;53.226;10.400;2024-02-21T00:47:50;101426.28;;;10.14;76.43
51313;BME280;37397;53.226;10.400;2024-02-21T00:50:17;101417.25;;;10.15;76.42
51313;BME280;37397;53.226;10.400;2024-02-21T00:52:44;101418.06;;;10.16;76.38
51313;BME280;37397;53.226;10.400;2024-02-21T00:55:11;101411.56;;;10.15;76.51
51313;BME280;37397;53.226;10.400;2024-02-21T00:57:38;101408.69;;;10.15;76.53
51313;BME280;37397;53.226;10.400;2024-02-21T01:00:05;101386.50;;;10.10;76.43
51313;BME280;37397;53.226;10.400;2024-02-21T01:02:32;101408.69;;;10.15;76.51
51313;BME280;37397;53.226;10.400;2024-02-21T01:04:58;101397.28;;;10.15;76.38
51313;BME280;37397;53.226;10.400;2024-02-21T01:07:25;101385.56;;;10.13;76.44
51313;BME280;37397;53.226;10.400;2024-02-21T01:09:52;101380.31;;;10.12;76.56
51313;BME280;37397;53.226;10.400;2024-02-21T01:12:19;101381.47;;;10.14;76.54
51313;BME280;37397;53.226;10.400;2024-02-21T01:14:46;101378.59;;;10.14;76.54
51313;BME280;37397;53.226;10.400;2024-02-21T01:17:12;101378.94;;;10.16;76.62
51313;BME280;37397;53.226;10.400;2024-02-21T01:19:39;101380.66;;;10.14;76.54
51313;BME280;37397;53.226;10.400;2024-02-21T01:22:06;101384.63;;;10.16;76.67
51313;BME280;37397;53.226;10.400;2024-02-21T01:24:33;101383.03;;;10.15;76.68
51313;BME280;37397;53.226;10.400;2024-02-21T01:26:59;101381.47;;;10.14;76.55
51313;BME280;37397;53.226;10.400;2024-02-21T01:29:26;101370.06;;;10.14;76.66
51313;BME280;37397;53.226;10.400;2024-02-21T01:31:52;101378.59;;;10.14;76.65
51313;BME280;37397;53.226;10.400;2024-02-21T01:34:19;101355.44;;;10.12;76.67
51313;BME280;37397;53.226;10.400;2024-02-21T01:36:46;101348.50;;;10.13;76.66
51313;BME280;37397;53.226;10.400;2024-02-21T01:39:12;101355.78;;;10.14;76.71
51313;BME280;37397;53.226;10.400;2024-02-21T01:41:39;101356.13;;;10.16;76.73
51313;BME280;37397;53.226;10.400;2024-02-21T01:44:06;101348.81;;;10.15;76.78
51313;BME280;37397;53.226;10.400;2024-02-21T01:46:32;101343.09;;;10.15;76.39
51313;BME280;37397;53.226;10.400;2024-02-21T01:49:00;101345.50;;;10.17;76.61
51313;BME280;37397;53.226;10.400;2024-02-21T01:51:27;101332.63;;;10.12;76.79
51313;BME280;37397;53.226;10.400;2024-02-21T01:53:55;101350.41;;;10.16;76.67
51313;BME280;37397;53.226;10.400;2024-02-21T01:56:23;101344.72;;;10.16;76.82
51313;BME280;37397;53.226;10.400;2024-02-21T01:58:50;101333.31;;;10.16;76.82
51313;BME280;37397;53.226;10.400;2024-02-21T02:01:17;101340.25;;;10.15;76.75
51313;BME280;37397;53.226;10.400;2024-02-21T02:03:47;101334.09;;;10.17;76.85
51313;BME280;37397;53.226;10.400;2024-02-21T02:06:15;101336.63;;;10.15;76.89
51313;BME280;37397;53.226;10.400;2024-02-21T02:08:42;101324.41;;;10.14;77.05
51313;BME280;37397;53.226;10.400;2024-02-21T02:11:09;101324.75;;;10.16;76.92
51313;BME280;37397;53.226;10.400;2024-02-21T02:13:36;101311.28;;;10.17;76.88
51313;BME280;37397;53.226;10.400;2024-02-21T02:16:03;101298.75;;;10.14;76.70
51313;BME280;37397;53.226;10.400;2024-02-21T02:18:30;101287.66;;;10.16;76.76
51313;BME280;37397;53.226;10.400;2024-02-21T02:20:57;101286.22;;;10.12;76.69
51313;BME280;37397;53.226;10.400;2024-02-21T02:23:31;101290.06;;;10.18;76.76
51313;BME280;37397;53.226;10.400;2024-02-21T02:25:58;101280.38;;;10.15;76.92
51313;BME280;37397;53.226;10.400;2024-02-21T02:28:26;101274.66;;;10.15;76.93
51313;BME280;37397;53.226;10.400;2024-02-21T02:30:53;101262.00;;;10.16;76.90
51313;BME280;37397;53.226;10.400;2024-02-21T02:33:19;101264.38;;;10.18;77.02
51313;BME280;37397;53.226;10.400;2024-02-21T02:35:46;101248.66;;;10.13;76.97
51313;BME280;37397;53.226;10.400;2024-02-21T02:38:13;101248.06;;;10.18;76.88
51313;BME280;37397;53.226;10.400;2024-02-21T02:40:41;101251.69;;;10.19;76.91
51313;BME280;37397;53.226;10.400;2024-02-21T02:43:08;101243.94;;;10.19;76.92
51313;BME280;37397;53.226;10.400;2024-02-21T02:45:35;101233.78;;;10.18;77.00
51313;BME280;37397;53.226;10.400;2024-02-21T02:48:02;101215.09;;;10.17;76.94
51313;BME280;37397;53.226;10.400;2024-02-21T02:50:29;101219.53;;;10.18;76.85
51313;BME280;37397;53.226;10.400;2024-02-21T02:52:55;101209.38;;;10.17;77.01
51313;BME280;37397;53.226;10.400;2024-02-21T02:55:22;101193.09;;;10.18;76.85
51313;BME280;37397;53.226;10.400;2024-02-21T02:57:49;101208.91;;;10.19;77.04
51313;BME280;37397;53.226;10.400;2024-02-21T03:00:16;101204.50;;;10.18;77.08
51313;BME280;37397;53.226;10.400;2024-02-21T03:02:46;101202.09;;;10.16;76.98
51313;BME280;37397;53.226;10.400;2024-02-21T03:05:16;101194.19;;;10.20;77.08
51313;BME280;37397;53.226;10.400;2024-02-21T03:07:44;101206.88;;;10.19;76.93
51313;BME280;37397;53.226;10.400;2024-02-21T03:10:11;101199.09;;;10.20;77.08
51313;BME280;37397;53.226;10.400;2024-02-21T03:12:38;101210.03;;;10.21;77.00
51313;BME280;37397;53.226;10.400;2024-02-21T03:15:04;101191.34;;;10.20;77.05
51313;BME280;37397;53.226;10.400;2024-02-21T03:17:32;101190.06;;;10.21;77.01
51313;BME280;37397;53.226;10.400;2024-02-21T03:20:02;101171.06;;;10.18;77.00
51313;BME280;37397;53.226;10.400;2024-02-21T03:22:36;101179.13;;;10.20;77.01
51313;BME280;37397;53.226;10.400;2024-02-21T03:25:03;101183.72;;;10.17;76.98
51313;BME280;37397;53.226;10.400;2024-02-21T03:27:30;101172.31;;;10.17;77.07
51313;BME280;37397;53.226;10.400;2024-02-21T03:29:57;101175.81;;;10.21;77.08
51313;BME280;37397;53.226;10.400;2024-02-21T03:32:23;101192.94;;;10.21;77.31
51313;BME280;37397;53.226;10.400;2024-02-21T03:34:50;101187.22;;;10.21;77.06
51313;BME280;37397;53.226;10.400;2024-02-21T03:37:17;101193.88;;;10.18;77.11
51313;BME280;37397;53.226;10.400;2024-02-21T03:39:44;101190.53;;;10.20;76.91
51313;BME280;37397;53.226;10.400;2024-02-21T03:42:11;101189.63;;;10.23;77.11
51313;BME280;37397;53.226;10.400;2024-02-21T03:44:37;101178.34;;;10.19;77.02
51313;BME280;37397;53.226;10.400;2024-02-21T03:47:05;101190.88;;;10.22;76.96
51313;BME280;37397;53.226;10.400;2024-02-21T03:49:32;101207.97;;;10.22;77.09
51313;BME280;37397;53.226;10.400;2024-02-21T03:51:58;101199.88;;;10.20;76.98
51313;BME280;37397;53.226;10.400;2024-02-21T03:54:25;101192.94;;;10.21;77.02
51313;BME280;37397;53.226;10.400;2024-02-21T03:56:51;101191.34;;;10.20;77.06
51313;BME280;37397;53.226;10.400;2024-02-21T03:59:18;101193.41;;;10.20;77.04
51313;BME280;37397;53.226;10.400;2024-02-21T04:01:45;101197.03;;;10.20;77.12
51313;BME280;37397;53.226;10.400;2024-02-21T04:04:11;101212.91;;;10.21;76.94
51313;BME280;37397;53.226;10.400;2024-02-21T04:06:50;101192.94;;;10.21;77.06
51313;BME280;37397;53.226;10.400;2024-02-21T04:09:18;101197.50;;;10.19;76.91
51313;BME280;37397;53.226;10.400;2024-02-21T04:11:44;101189.75;;;10.19;77.04
51313;BME280;37397;53.226;10.400;2024-02-21T04:14:11;101190.06;;;10.21;77.08
51313;BME280;37397;53.226;10.400;2024-02-21T04:16:38;101204.34;;;10.21;77.10
51313;BME280;37397;53.226;10.400;2024-02-21T04:19:06;101187.22;;;10.21;77.00
51313;BME280;37397;53.226;10.400;2024-02-21T04:21:32;101194.53;;;10.22;77.09
51313;BME280;37397;53.226;10.400;2024-02-21T04:23:59;101186.44;;;10.21;76.89
51313;BME280;37397;53.226;10.400;2024-02-21T04:26:26;101186.44;;;10.21;77.06
51313;BME280;37397;53.226;10.400;2024-02-21T04:28:52;101184.06;;;10.19;77.08
51313;BME280;37397;53.226;10.400;2024-02-21T04:31:19;101188.16;;;10.18;77.03
51313;BME280;37397;53.226;10.400;2024-02-21T04:33:46;101193.72;;;10.22;77.08
51313;BME280;37397;53.226;10.400;2024-02-21T04:36:12;101182.31;;;10.22;77.15
51313;BME280;37397;53.226;10.400;2024-02-21T04:38:39;101193.25;;;10.23;77.05
51313;BME280;37397;53.226;10.400;2024-02-21T04:41:07;101187.06;;;10.25;77.00
51313;BME280;37397;53.226;10.400;2024-02-21T04:43:34;101185.50;;;10.24;77.09
51313;BME280;37397;53.226;10.400;2024-02-21T04:46:01;101174.88;;;10.25;77.05
51313;BME280;37397;53.226;10.400;2024-02-21T04:48:27;101164.72;;;10.23;77.18
51313;BME280;37397;53.226;10.400;2024-02-21T04:50:54;101165.06;;;10.26;77.09
51313;BME280;37397;53.226;10.400;2024-02-21T04:53:21;101159.38;;;10.26;77.10
51313;BME280;37397;53.226;10.400;2024-02-21T04:55:47;101153.66;;;10.26;76.87
51313;BME280;37397;53.226;10.400;2024-02-21T04:58:14;101157.78;;;10.25;76.97
51313;BME280;37397;53.226;10.400;2024-02-21T05:00:40;101154.59;;;10.22;77.02
51313;BME280;37397;53.226;10.400;2024-02-21T05:03:07;101157.78;;;10.25;77.19
51313;BME280;37397;53.226;10.400;2024-02-21T05:05:33;101161.88;;;10.23;77.08
51313;BME280;37397;53.226;10.400;2024-02-21T05:08:00;101152.38;;;10.27;77.10
51313;BME280;37397;53.226;10.400;2024-02-21T05:10:26;101146.34;;;10.25;77.10
51313;BME280;37397;53.226;10.400;2024-02-21T05:12:53;101157.78;;;10.25;77.12
51313;BME280;37397;53.226;10.400;2024-02-21T05:15:20;101135.88;;;10.21;77.18
51313;BME280;37397;53.226;10.400;2024-02-21T05:17:46;101150.47;;;10.23;77.05
51313;BME280;37397;53.226;10.400;2024-02-21T05:20:13;101150.47;;;10.23;77.08
51313;BME280;37397;53.226;10.400;2024-02-21T05:22:39;101143.50;;;10.25;76.96
51313;BME280;37397;53.226;10.400;2024-02-21T05:25:07;101143.03;;;10.26;77.19
51313;BME280;37397;53.226;10.400;2024-02-21T05:27:33;101139.06;;;10.23;77.21
51313;BME280;37397;53.226;10.400;2024-02-21T05:30:01;101142.25;;;10.26;77.08
51313;BME280;37397;53.226;10.400;2024-02-21T05:32:27;101149.22;;;10.25;77.25
51313;BME280;37397;53.226;10.400;2024-02-21T05:34:54;101149.22;;;10.25;77.10
51313;BME280;37397;53.226;10.400;2024-02-21T05:37:21;101143.19;;;10.22;77.17
51313;BME280;37397;53.226;10.400;2024-02-21T05:39:47;101137.03;;;10.24;77.22
51313;BME280;37397;53.226;10.400;2024-02-21T05:42:14;101141.44;;;10.25;77.17
51313;BME280;37397;53.226;10.400;2024-02-21T05:44:41;101140.66;;;10.25;77.19
51313;BME280;37397;53.226;10.400;2024-02-21T05:47:07;101141.44;;;10.25;77.19
51313;BME280;37397;53.226;10.400;2024-02-21T05:49:39;101140.66;;;10.25;77.16
51313;BME280;37397;53.226;10.400;2024-02-21T05:52:05;101143.03;;;10.26;77.14
51313;BME280;37397;53.226;10.400;2024-02-21T05:54:32;101142.25;;;10.26;77.12
51313;BME280;37397;53.226;10.400;2024-02-21T05:56:59;101144.63;;;10.27;76.90
51313;BME280;37397;53.226;10.400;2024-02-21T05:59:25;101137.81;;;10.25;77.42
51313;BME280;37397;53.226;10.400;2024-02-21T06:01:56;101143.03;;;10.26;77.17
51313;BME280;37397;53.226;10.400;2024-02-21T06:04:24;101135.25;;;10.27;77.17
51313;BME280;37397;53.226;10.400;2024-02-21T06:06:51;101132.41;;;10.27;77.12
51313;BME280;37397;53.226;10.400;2024-02-21T06:09:18;101129.25;;;10.25;77.20
51313;BME280;37397;53.226;10.400;2024-02-21T06:11:44;101132.41;;;10.27;77.09
51313;BME280;37397;53.226;10.400;2024-02-21T06:14:12;101138.13;;;10.27;77.22
51313;BME280;37397;53.226;10.400;2024-02-21T06:16:39;101131.31;;;10.24;77.24
51313;BME280;37397;53.226;10.400;2024-02-21T06:19:06;101133.69;;;10.26;77.25
51313;BME280;37397;53.226;10.400;2024-02-21T06:21:36;101136.53;;;10.26;77.11
51313;BME280;37397;53.226;10.400;2024-02-21T06:24:03;101136.53;;;10.26;77.17
51313;BME280;37397;53.226;10.400;2024-02-21T06:26:30;101140.97;;;10.27;77.23
51313;BME280;37397;53.226;10.400;2024-02-21T06:28:56;101134.94;;;10.25;77.20
51313;BME280;37397;53.226;10.400;2024-02-21T06:31:24;101134.47;;;10.26;77.34
51313;BME280;37397;53.226;10.400;2024-02-21T06:33:50;101143.81;;;10.27;77.19
51313;BME280;37397;53.226;10.400;2024-02-21T06:36:17;101132.09;;;10.25;77.17
51313;BME280;37397;53.226;10.400;2024-02-21T06:38:44;101133.22;;;10.27;77.45
51313;BME280;37397;53.226;10.400;2024-02-21T06:41:18;101133.69;;;10.26;77.17
51313;BME280;37397;53.226;10.400;2024-02-21T06:43:45;101142.38;;;10.22;77.55
51313;BME280;37397;53.226;10.400;2024-02-21T06:46:23;101140.34;;;10.22;77.41
51313;BME280;37397;53.226;10.400;2024-02-21T06:48:50;101130.19;;;10.21;77.55
51313;BME280;37397;53.226;10.400;2024-02-21T06:51:17;101133.34;;;10.23;77.57
51313;BME280;37397;53.226;10.400;2024-02-21T06:53:44;101136.53;;;10.26;77.50
51313;BME280;37397;53.226;10.400;2024-02-21T06:56:11;101138.13;;;10.27;77.37
51313;BME280;37397;53.226;10.400;2024-02-21T06:58:38;101138.13;;;10.27;77.48
51313;BME280;37397;53.226;10.400;2024-02-21T07:01:04;101140.19;;;10.26;77.44
51313;BME280;37397;53.226;10.400;2024-02-21T07:03:31;101135.25;;;10.27;77.49
51313;BME280;37397;53.226;10.400;2024-02-21T07:05:58;101131.16;;;10.28;77.53
51313;BME280;37397;53.226;10.400;2024-02-21T07:08:25;101127.66;;;10.23;77.51
51313;BME280;37397;53.226;10.400;2024-02-21T07:10:52;101134.00;;;10.28;77.50
51313;BME280;37397;53.226;10.400;2024-02-21T07:13:19;101132.41;;;10.27;77.58
51313;BME280;37397;53.226;10.400;2024-02-21T07:15:48;101132.41;;;10.27;77.60
51313;BME280;37397;53.226;10.400;2024-02-21T07:18:14;101132.41;;;10.27;77.67
51313;BME280;37397;53.226;10.400;2024-02-21T07:20:41;101144.13;;;10.29;77.57
51313;BME280;37397;53.226;10.400;2024-02-21T07:23:08;101144.44;;;10.21;77.58
51313;BME280;37397;53.226;10.400;2024-02-21T07:25:35;101155.22;;;10.27;77.45
51313;BME280;37397;53.226;10.400;2024-02-21T07:28:02;101152.69;;;10.29;77.56
51313;BME280;37397;53.226;10.400;2024-02-21T07:30:29;101156.81;;;10.28;77.59
51313;BME280;37397;53.226;10.400;2024-02-21T07:32:56;101156.81;;;10.28;77.52
51313;BME280;37397;53.226;10.400;2024-02-21T07:35:22;101158.41;;;10.29;77.57
51313;BME280;37397;53.226;10.400;2024-02-21T07:37:49;101168.25;;;10.28;77.64
51313;BME280;37397;53.226;10.400;2024-02-21T07:40:16;101162.53;;;10.28;77.73
51313;BME280;37397;53.226;10.400;2024-02-21T07:42:43;101157.13;;;10.30;77.42
51313;BME280;37397;53.226;10.400;2024-02-21T07:45:15;101160.16;;;10.26;77.79
51313;BME280;37397;53.226;10.400;2024-02-21T07:47:42;101159.22;;;10.29;77.66
51313;BME280;37397;53.226;10.400;2024-02-21T07:50:08;101162.84;;;10.30;77.77
51313;BME280;37397;53.226;10.400;2024-02-21T07:52:35;101147.78;;;10.29;77.75
51313;BME280;37397;53.226;10.400;2024-02-21T07:55:02;101157.44;;;10.32;77.83
51313;BME280;37397;53.226;10.400;2024-02-21T07:57:29;101155.44;;;10.32;77.91
51313;BME280;37397;53.226;10.400;2024-02-21T07:59:56;101148.91;;;10.32;77.98
51313;BME280;37397;53.226;10.400;2024-02-21T08:02:23;101146.88;;;10.32;77.87
51313;BME280;37397;53.226;10.400;2024-02-21T08:04:49;101140.34;;;10.32;77.78
51313;BME280;37397;53.226;10.400;2024-02-21T08:07:16;101147.66;;;10.33;78.04
51313;BME280;37397;53.226;10.400;2024-02-21T08:09:43;101154.97;;;10.34;77.97
51313;BME280;37397;53.226;10.400;2024-02-21T08:12:09;101146.41;;;10.34;78.18
51313;BME280;37397;53.226;10.400;2024-02-21T08:14:36;101143.56;;;10.34;78.03
51313;BME280;37397;53.226;10.400;2024-02-21T08:17:02;101144.81;;;10.33;78.11
51313;BME280;37397;53.226;10.400;2024-02-21T08:19:30;101135.31;;;10.36;78.27
51313;BME280;37397;53.226;10.400;2024-02-21T08:21:57;101147.03;;;10.38;78.21
51313;BME280;37397;53.226;10.400;2024-02-21T08:24:24;101146.72;;;10.36;78.38
51313;BME280;37397;53.226;10.400;2024-02-21T08:26:50;101134.38;;;10.39;78.25
51313;BME280;37397;53.226;10.400;2024-02-21T08:29:17;101122.91;;;10.30;78.50
51313;BME280;37397;53.226;10.400;2024-02-21T08:31:43;101138.81;;;10.40;78.56
51313;BME280;37397;53.226;10.400;2024-02-21T08:34:10;101138.47;;;10.38;78.32
51313;BME280;37397;53.226;10.400;2024-02-21T08:36:37;101131.53;;;10.39;78.50
51313;BME280;37397;53.226;10.400;2024-02-21T08:39:04;101121.72;;;10.40;78.28
51313;BME280;37397;53.226;10.400;2024-02-21T08:41:32;101139.13;;;10.42;78.50
51313;BME280;37397;53.226;10.400;2024-02-21T08:44:17;101131.84;;;10.41;78.55
51313;BME280;37397;53.226;10.400;2024-02-21T08:46:43;101123.28;;;10.41;78.24
51313;BME280;37397;53.226;10.400;2024-02-21T08:49:10;101133.28;;;10.46;78.80
51313;BME280;37397;53.226;10.400;2024-02-21T08:51:37;101125.19;;;10.44;78.65
51313;BME280;37397;53.226;10.400;2024-02-21T08:54:04;101127.09;;;10.47;78.54
51313;BME280;37397;53.226;10.400;2024-02-21T08:56:31;101126.63;;;10.49;78.48
51313;BME280;37397;53.226;10.400;2024-02-21T08:58:58;101118.84;;;10.49;78.64
51313;BME280;37397;53.226;10.400;2024-02-21T09:01:26;101120.91;;;10.49;78.56
51313;BME280;37397;53.226;10.400;2024-02-21T09:03:53;101124.09;;;10.51;78.79
51313;BME280;37397;53.226;10.400;2024-02-21T09:06:20;101119.97;;;10.52;78.75
51313;BME280;37397;53.226;10.400;2024-02-21T09:08:48;101124.91;;;10.51;78.66
51313;BME280;37397;53.226;10.400;2024-02-21T09:11:14;101111.41;;;10.52;78.77
51313;BME280;37397;53.226;10.400;2024-02-21T09:13:42;101110.94;;;10.53;78.73
51313;BME280;37397;53.226;10.400;2024-02-21T09:16:08;101116.66;;;10.53;78.71
51313;BME280;37397;53.226;10.400;2024-02-21T09:18:35;101106.81;;;10.54;78.81
51313;BME280;37397;53.226;10.400;2024-02-21T09:21:02;101113.16;;;10.58;78.70
51313;BME280;37397;53.226;10.400;2024-02-21T09:23:29;101112.22;;;10.62;78.81
51313;BME280;37397;53.226;10.400;2024-02-21T09:25:58;101107.28;;;10.62;78.77
51313;BME280;37397;53.226;10.400;2024-02-21T09:28:27;101117.91;;;10.62;78.87
51313;BME280;37397;53.226;10.400;2024-02-21T09:30:54;101116.66;;;10.63;78.65
51313;BME280;37397;53.226;10.400;2024-02-21T09:33:20;101114.13;;;10.65;78.83
51313;BME280;37397;53.226;10.400;2024-02-21T09:35:58;101112.81;;;10.66;78.79
51313;BME280;37397;53.226;10.400;2024-02-21T09:38:24;101105.09;;;10.66;78.88
51313;BME280;37397;53.226;10.400;2024-02-21T09:41:16;101107.94;;;10.66;78.75
51313;BME280;37397;53.226;10.400;2024-02-21T09:43:51;101112.34;;;10.67;78.84
51313;BME280;37397;53.226;10.400;2024-02-21T09:49:28;101104.59;;;10.68;78.67
51313;BME280;37397;53.226;10.400;2024-02-21T09:51:57;101103.66;;;10.71;78.74
51313;BME280;37397;53.226;10.400;2024-02-21T09:54:26;101100.47;;;10.69;78.83
51313;BME280;37397;53.226;10.400;2024-02-21T09:56:54;101093.03;;;10.71;78.77
51313;BME280;37397;53.226;10.400;2024-02-21T09:59:22;101089.03;;;10.69;78.72
51313;BME280;37397;53.226;10.400;2024-02-21T10:01:50;101089.38;;;10.71;78.85
51313;BME280;37397;53.226;10.400;2024-02-21T10:04:19;101088.56;;;10.70;78.77
51313;BME280;37397;53.226;10.400;2024-02-21T10:06:46;101097.00;;;10.74;78.75
51313;BME280;37397;53.226;10.400;2024-02-21T10:09:27;101096.19;;;10.73;78.68
51313;BME280;37397;53.226;10.400;2024-02-21T10:12:11;101089.38;;;10.71;78.62
51313;BME280;37397;53.226;10.400;2024-02-21T10:14:39;101094.16;;;10.74;78.76
51313;BME280;37397;53.226;10.400;2024-02-21T10:17:06;101089.22;;;10.74;78.56
51313;BME280;37397;53.226;10.400;2024-02-21T10:19:37;101088.75;;;10.76;78.59
51313;BME280;37397;53.226;10.400;2024-02-21T10:22:09;101091.28;;;10.74;78.55
51313;BME280;37397;53.226;10.400;2024-02-21T10:24:36;101090.34;;;10.77;78.65
51313;BME280;37397;53.226;10.400;2024-02-21T10:27:09;101090.00;;;10.75;78.57
51313;BME280;37397;53.226;10.400;2024-02-21T10:29:40;101092.38;;;10.76;78.58
51313;BME280;37397;53.226;10.400;2024-02-21T10:32:11;101088.75;;;10.76;78.46
51313;BME280;37397;53.226;10.400;2024-02-21T10:34:40;101078.91;;;10.77;78.53
51313;BME280;37397;53.226;10.400;2024-02-21T10:37:10;101079.22;;;10.79;78.45
51313;BME280;37397;53.226;10.400;2024-02-21T10:39:38;101089.34;;;10.80;78.53
51313;BME280;37397;53.226;10.400;2024-02-21T10:42:05;101076.69;;;10.81;78.41
51313;BME280;37397;53.226;10.400;2024-02-21T10:44:34;101076.38;;;10.79;78.49
51313;BME280;37397;53.226;10.400;2024-02-21T10:47:07;101081.28;;;10.79;78.45
51313;BME280;37397;53.226;10.400;2024-02-21T10:49:38;101075.41;;;10.82;78.33
51313;BME280;37397;53.226;10.400;2024-02-21T10:52:23;101082.69;;;10.83;78.31
51313;BME280;37397;53.226;10.400;2024-02-21T10:55:04;101073.34;;;10.83;78.30
51313;BME280;37397;53.226;10.400;2024-02-21T10:57:35;101074.47;;;10.85;78.39
51313;BME280;37397;53.226;10.400;2024-02-21T11:00:02;101068.75;;;10.85;78.38
51313;BME280;37397;53.226;10.400;2024-02-21T11:02:30;101058.91;;;10.86;78.38
51313;BME280;37397;53.226;10.400;2024-02-21T11:04:58;101053.19;;;10.86;78.29
51313;BME280;37397;53.226;10.400;2024-02-21T11:07:25;101050.34;;;10.86;78.34
51313;BME280;37397;53.226;10.400;2024-02-21T11:09:53;101058.44;;;10.88;78.44
51313;BME280;37397;53.226;10.400;2024-02-21T11:12:24;101059.56;;;10.90;78.33
51313;BME280;37397;53.226;10.400;2024-02-21T11:14:52;101050.97;;;10.90;78.45
51313;BME280;37397;53.226;10.400;2024-02-21T11:17:20;101062.88;;;10.89;78.17
51313;BME280;37397;53.226;10.400;2024-02-21T11:19:53;101050.50;;;10.92;78.28
51313;BME280;37397;53.226;10.400;2024-02-21T11:22:20;101044.97;;;10.88;78.18
51313;BME280;37397;53.226;10.400;2024-02-21T11:24:49;101051.59;;;10.94;78.19
51313;BME280;37397;53.226;10.400;2024-02-21T11:27:16;101044.63;;;10.95;78.15
51313;BME280;37397;53.226;10.400;2024-02-21T11:29:54;101039.88;;;10.92;78.12
51313;BME280;37397;53.226;10.400;2024-02-21T11:32:22;101037.31;;;10.94;78.08
51313;BME280;37397;53.226;10.400;2024-02-21T11:34:59;101034.94;;;10.93;78.01
51313;BME280;37397;53.226;10.400;2024-02-21T11:37:32;101041.78;;;10.95;78.10
51313;BME280;37397;53.226;10.400;2024-02-21T11:40:06;101023.03;;;10.94;78.02
51313;BME280;37397;53.226;10.400;2024-02-21T11:42:38;101017.31;;;10.94;78.05
51313;BME280;37397;53.226;10.400;2024-02-21T11:45:06;101026.22;;;10.97;78.04
51313;BME280;37397;53.226;10.400;2024-02-21T11:47:33;101014.47;;;10.94;77.87
51313;BME280;37397;53.226;10.400;2024-02-21T11:49:59;101017.19;;;10.98;77.70
51313;BME280;37397;53.226;10.400;2024-02-21T11:52:26;101020.81;;;10.99;77.86
51313;BME280;37397;53.226;10.400;2024-02-21T11:54:55;101006.53;;;10.99;77.79
51313;BME280;37397;53.226;10.400;2024-02-21T11:57:24;101007.81;;;10.98;77.72
51313;BME280;37397;53.226;10.400;2024-02-21T11:59:51;101010.66;;;10.98;77.64
51313;BME280;37397;53.226;10.400;2024-02-21T12:02:24;101003.69;;;10.99;77.80
51313;BME280;37397;53.226;10.400;2024-02-21T12:04:51;100987.81;;;10.98;77.68
51313;BME280;37397;53.226;10.400;2024-02-21T12:07:18;100985.28;;;11.00;77.64
51313;BME280;37397;53.226;10.400;2024-02-21T12:09:45;100990.19;;;10.99;77.63
51313;BME280;37397;53.226;10.400;2024-02-21T12:12:11;100975.91;;;10.99;77.73
51313;BME280;37397;53.226;10.400;2024-02-21T12:14:38;100969.44;;;10.99;77.60
51313;BME280;37397;53.226;10.400;2024-02-21T12:17:05;100971.81;;;11.00;77.60
51313;BME280;37397;53.226;10.400;2024-02-21T12:19:33;100964.97;;;10.98;77.56
51313;BME280;37397;53.226;10.400;2024-02-21T12:22:00;100971.03;;;11.00;77.66
51313;BME280;37397;53.226;10.400;2024-02-21T12:24:28;100966.56;;;10.99;77.62
51313;BME280;37397;53.226;10.400;2024-02-21T12:26:56;100966.09;;;11.00;77.57
51313;BME280;37397;53.226;10.400;2024-02-21T12:29:24;100961.16;;;11.01;77.63
51313;BME280;37397;53.226;10.400;2024-02-21T12:31:51;100952.91;;;11.03;77.76
51313;BME280;37397;53.226;10.400;2024-02-21T12:34:18;100953.06;;;10.99;77.58
51313;BME280;37397;53.226;10.400;2024-02-21T12:37:01;100951.03;;;11.00;77.63
51313;BME280;37397;53.226;10.400;2024-02-21T12:39:27;100949.75;;;11.01;77.68
51313;BME280;37397;53.226;10.400;2024-02-21T12:41:55;100946.41;;;11.02;77.57
51313;BME280;37397;53.226;10.400;2024-02-21T12:44:23;100943.06;;;11.04;77.60
51313;BME280;37397;53.226;10.400;2024-02-21T12:46:50;100937.34;;;11.04;77.48